sensor_id;sensor_type;location;lat;lon;timestamp;pressure;altitude;pressure_sealevel;temperature;humidity
67430;BME280;54298;52.076;5.264;2023-05-08T00:00:31;101996.0;;;13.68;90.25
67430;BME280;54298;52.076;5.264;2023-05-08T00:02:07;101996.0;;;13.61;90.34
67430;BME280;54298;52.076;5.264;2023-05-08T00:05:20;101999.0;;;13.56;90.76
67430;BME280;54298;52.076;5.264;2023-05-08T00:06:56;101999.0;;;13.56;90.77
67430;BME280;54298;52.076;5.264;2023-05-08T00:08:33;101998.0;;;13.56;90.52
67430;BME280;54298;52.076;5.264;2023-05-08T00:11:47;101996.0;;;13.57;90.66
67430;BME280;54298;52.076;5.264;2023-05-08T00:13:24;101994.0;;;13.61;90.38
67430;BME280;54298;52.076;5.264;2023-05-08T00:15:00;101991.0;;;13.59;90.16
67430;BME280;54298;52.076;5.264;2023-05-08T00:18:13;101993.0;;;13.67;89.85
67430;BME280;54298;52.076;5.264;2023-05-08T00:19:50;101986.0;;;13.59;89.81
67430;BME280;54298;52.076;5.264;2023-05-08T00:21:27;101985.0;;;13.59;89.98
67430;BME280;54298;52.076;5.264;2023-05-08T00:23:04;101983.0;;;13.49;90.19
67430;BME280;54298;52.076;5.264;2023-05-08T00:26:16;101981.0;;;13.5;90.23
67430;BME280;54298;52.076;5.264;2023-05-08T00:27:53;101981.0;;;13.58;89.89
67430;BME280;54298;52.076;5.264;2023-05-08T00:29:29;101976.0;;;13.52;89.96
67430;BME280;54298;52.076;5.264;2023-05-08T00:32:41;101975.0;;;13.42;90.43
67430;BME280;54298;52.076;5.264;2023-05-08T00:34:17;101982.0;;;13.33;91.42
67430;BME280;54298;52.076;5.264;2023-05-08T00:35:58;101980.0;;;13.19;92.27
67430;BME280;54298;52.076;5.264;2023-05-08T00:39:11;101981.0;;;13.25;92.46
67430;BME280;54298;52.076;5.264;2023-05-08T00:40:48;101977.0;;;13.27;92.45
67430;BME280;54298;52.076;5.264;2023-05-08T00:42:24;101977.0;;;13.35;91.69
67430;BME280;54298;52.076;5.264;2023-05-08T00:44:00;101984.0;;;13.34;91.59
67430;BME280;54298;52.076;5.264;2023-05-08T00:47:15;101985.0;;;13.28;91.74
67430;BME280;54298;52.076;5.264;2023-05-08T00:48:52;101985.0;;;13.28;91.83
67430;BME280;54298;52.076;5.264;2023-05-08T00:50:29;101983.0;;;13.25;92.06
67430;BME280;54298;52.076;5.264;2023-05-08T00:53:43;101973.0;;;13.22;92.07
67430;BME280;54298;52.076;5.264;2023-05-08T00:55:20;101980.0;;;13.29;91.85
67430;BME280;54298;52.076;5.264;2023-05-08T00:56:57;101977.0;;;13.32;91.31
67430;BME280;54298;52.076;5.264;2023-05-08T00:58:35;101982.0;;;13.31;91.39
67430;BME280;54298;52.076;5.264;2023-05-08T01:01:52;101980.0;;;13.27;91.47
67430;BME280;54298;52.076;5.264;2023-05-08T01:03:31;101977.0;;;13.23;91.67
67430;BME280;54298;52.076;5.264;2023-05-08T01:05:08;101977.0;;;13.22;91.74
67430;BME280;54298;52.076;5.264;2023-05-08T01:08:21;101978.0;;;13.28;91.02
67430;BME280;54298;52.076;5.264;2023-05-08T01:09:57;101975.0;;;13.27;90.63
67430;BME280;54298;52.076;5.264;2023-05-08T01:11:37;101976.0;;;13.41;89.55
67430;BME280;54298;52.076;5.264;2023-05-08T01:13:34;101974.0;;;13.44;89.01
67430;BME280;54298;52.076;5.264;2023-05-08T01:15:28;101978.0;;;13.41;88.72
67430;BME280;54298;52.076;5.264;2023-05-08T01:19:00;101981.0;;;13.22;89.08
67430;BME280;54298;52.076;5.264;2023-05-08T01:20:53;101980.0;;;13.23;89.24
67430;BME280;54298;52.076;5.264;2023-05-08T01:23:07;101974.0;;;13.27;88.86
67430;BME280;54298;52.076;5.264;2023-05-08T01:26:10;101975.0;;;13.31;88.03
67430;BME280;54298;52.076;5.264;2023-05-08T01:28:18;101972.0;;;13.26;88.2
67430;BME280;54298;52.076;5.264;2023-05-08T01:31:58;101974.0;;;13.12;88.64
67430;BME280;54298;52.076;5.264;2023-05-08T01:33:50;101980.0;;;12.87;89.44
67430;BME280;54298;52.076;5.264;2023-05-08T01:35:37;101986.0;;;12.78;90.04
67430;BME280;54298;52.076;5.264;2023-05-08T01:37:26;101990.0;;;12.71;90.5
67430;BME280;54298;52.076;5.264;2023-05-08T01:39:16;101992.0;;;12.7;90.76
67430;BME280;54298;52.076;5.264;2023-05-08T01:41:01;101987.0;;;12.61;91.39
67430;BME280;54298;52.076;5.264;2023-05-08T01:42:45;101986.0;;;12.58;91.54
67430;BME280;54298;52.076;5.264;2023-05-08T01:44:43;101988.0;;;12.55;91.33
67430;BME280;54298;52.076;5.264;2023-05-08T01:48:04;101981.0;;;12.5;91.58
67430;BME280;54298;52.076;5.264;2023-05-08T01:49:45;101985.0;;;12.41;92.19
67430;BME280;54298;52.076;5.264;2023-05-08T01:51:24;101983.0;;;12.5;92.05
67430;BME280;54298;52.076;5.264;2023-05-08T01:53:08;101984.0;;;12.43;92.26
67430;BME280;54298;52.076;5.264;2023-05-08T01:56:46;101992.0;;;12.6;91.77
67430;BME280;54298;52.076;5.264;2023-05-08T01:58:25;101989.0;;;12.62;91.38
67430;BME280;54298;52.076;5.264;2023-05-08T02:00:04;101988.0;;;12.65;91.18
67430;BME280;54298;52.076;5.264;2023-05-08T02:01:43;101990.0;;;12.53;91.49
67430;BME280;54298;52.076;5.264;2023-05-08T02:05:01;101987.0;;;12.61;91.36
67430;BME280;54298;52.076;5.264;2023-05-08T02:06:39;101992.0;;;12.64;90.77
67430;BME280;54298;52.076;5.264;2023-05-08T02:08:17;101988.0;;;12.63;90.33
67430;BME280;54298;52.076;5.264;2023-05-08T02:09:56;101989.0;;;12.55;90.79
67430;BME280;54298;52.076;5.264;2023-05-08T02:13:12;101992.0;;;12.58;90.59
67430;BME280;54298;52.076;5.264;2023-05-08T02:14:51;101993.0;;;12.47;90.98
67430;BME280;54298;52.076;5.264;2023-05-08T02:16:28;101998.0;;;12.53;90.88
67430;BME280;54298;52.076;5.264;2023-05-08T02:18:07;102002.0;;;12.36;91.38
67430;BME280;54298;52.076;5.264;2023-05-08T02:21:22;102005.0;;;12.34;91.86
67430;BME280;54298;52.076;5.264;2023-05-08T02:23:01;102013.0;;;12.33;91.78
67430;BME280;54298;52.076;5.264;2023-05-08T02:24:38;102010.0;;;12.22;92.26
67430;BME280;54298;52.076;5.264;2023-05-08T02:27:54;102006.0;;;12.22;92.33
67430;BME280;54298;52.076;5.264;2023-05-08T02:29:31;102008.0;;;12.2;92.35
67430;BME280;54298;52.076;5.264;2023-05-08T02:31:08;102012.0;;;12.31;92.1
67430;BME280;54298;52.076;5.264;2023-05-08T02:32:48;102011.0;;;12.42;91.56
67430;BME280;54298;52.076;5.264;2023-05-08T02:36:04;102009.0;;;12.44;90.4
67430;BME280;54298;52.076;5.264;2023-05-08T02:37:44;102005.0;;;12.5;90.25
67430;BME280;54298;52.076;5.264;2023-05-08T02:39:25;102008.0;;;12.61;89.56
67430;BME280;54298;52.076;5.264;2023-05-08T02:41:06;102003.0;;;12.43;89.79
67430;BME280;54298;52.076;5.264;2023-05-08T02:44:22;102002.0;;;12.23;90.81
67430;BME280;54298;52.076;5.264;2023-05-08T02:46:06;102006.0;;;12.23;91.09
67430;BME280;54298;52.076;5.264;2023-05-08T02:47:52;102006.0;;;12.25;91.23
67430;BME280;54298;52.076;5.264;2023-05-08T02:49:42;102003.0;;;12.24;90.41
67430;BME280;54298;52.076;5.264;2023-05-08T02:53:08;101999.0;;;12.38;89.61
67430;BME280;54298;52.076;5.264;2023-05-08T02:54:51;101998.0;;;12.42;89.4
67430;BME280;54298;52.076;5.264;2023-05-08T02:56:36;102001.0;;;12.29;89.6
67430;BME280;54298;52.076;5.264;2023-05-08T02:58:18;102002.0;;;12.27;89.9
67430;BME280;54298;52.076;5.264;2023-05-08T03:00:02;101997.0;;;12.25;89.85
67430;BME280;54298;52.076;5.264;2023-05-08T03:03:25;102000.0;;;12.19;90.06
67430;BME280;54298;52.076;5.264;2023-05-08T03:05:13;101992.0;;;12.24;89.9
67430;BME280;54298;52.076;5.264;2023-05-08T03:06:53;101989.0;;;12.22;89.61
67430;BME280;54298;52.076;5.264;2023-05-08T03:08:33;101985.0;;;12.2;89.68
67430;BME280;54298;52.076;5.264;2023-05-08T03:11:54;101987.0;;;12.16;89.91
67430;BME280;54298;52.076;5.264;2023-05-08T03:13:37;101987.0;;;12.11;89.75
67430;BME280;54298;52.076;5.264;2023-05-08T03:15:18;101985.0;;;12.24;89.28
67430;BME280;54298;52.076;5.264;2023-05-08T03:17:03;101984.0;;;12.27;88.76
67430;BME280;54298;52.076;5.264;2023-05-08T03:18:48;101985.0;;;12.15;88.88
67430;BME280;54298;52.076;5.264;2023-05-08T03:22:10;101984.0;;;11.95;89.87
67430;BME280;54298;52.076;5.264;2023-05-08T03:23:50;101986.0;;;11.98;90.7
67430;BME280;54298;52.076;5.264;2023-05-08T03:25:28;101982.0;;;11.87;91.39
67430;BME280;54298;52.076;5.264;2023-05-08T03:27:06;101982.0;;;11.86;91.85
67430;BME280;54298;52.076;5.264;2023-05-08T03:30:24;101985.0;;;11.89;91.42
67430;BME280;54298;52.076;5.264;2023-05-08T03:32:01;101985.0;;;11.8;91.99
67430;BME280;54298;52.076;5.264;2023-05-08T03:33:40;101982.0;;;11.93;91.72
67430;BME280;54298;52.076;5.264;2023-05-08T03:36:56;101986.0;;;11.93;91.65
67430;BME280;54298;52.076;5.264;2023-05-08T03:38:33;101990.0;;;11.85;91.84
67430;BME280;54298;52.076;5.264;2023-05-08T03:40:10;101991.0;;;11.83;92.03
67430;BME280;54298;52.076;5.264;2023-05-08T03:41:48;101988.0;;;11.93;91.76
67430;BME280;54298;52.076;5.264;2023-05-08T03:45:03;101988.0;;;11.8;92.42
67430;BME280;54298;52.076;5.264;2023-05-08T03:46:41;101990.0;;;11.8;92.71
67430;BME280;54298;52.076;5.264;2023-05-08T03:48:22;101990.0;;;11.83;93.1
67430;BME280;54298;52.076;5.264;2023-05-08T03:51:38;101989.0;;;11.78;93.51
67430;BME280;54298;52.076;5.264;2023-05-08T03:53:15;101982.0;;;11.96;92.82
67430;BME280;54298;52.076;5.264;2023-05-08T03:54:53;101980.0;;;12.02;92.45
67430;BME280;54298;52.076;5.264;2023-05-08T03:56:29;101980.0;;;12.08;91.99
67430;BME280;54298;52.076;5.264;2023-05-08T04:00:05;101980.0;;;12.08;91.88
67430;BME280;54298;52.076;5.264;2023-05-08T04:01:50;101980.0;;;12.15;91.4
67430;BME280;54298;52.076;5.264;2023-05-08T04:03:39;101978.0;;;12.03;91.82
67430;BME280;54298;52.076;5.264;2023-05-08T04:05:26;101980.0;;;11.82;92.49
67430;BME280;54298;52.076;5.264;2023-05-08T04:07:13;101981.0;;;11.67;93.48
67430;BME280;54298;52.076;5.264;2023-05-08T04:10:41;101976.0;;;11.69;93.85
67430;BME280;54298;52.076;5.264;2023-05-08T04:12:26;101981.0;;;11.74;93.75
67430;BME280;54298;52.076;5.264;2023-05-08T04:14:16;101981.0;;;11.83;92.96
67430;BME280;54298;52.076;5.264;2023-05-08T04:16:00;101982.0;;;11.9;92.54
67430;BME280;54298;52.076;5.264;2023-05-08T04:17:42;101985.0;;;11.83;92.62
67430;BME280;54298;52.076;5.264;2023-05-08T04:19:23;101987.0;;;11.88;92.69
67430;BME280;54298;52.076;5.264;2023-05-08T04:22:46;101984.0;;;11.91;92.05
67430;BME280;54298;52.076;5.264;2023-05-08T04:24:26;101993.0;;;11.94;91.74
67430;BME280;54298;52.076;5.264;2023-05-08T04:26:04;101990.0;;;11.91;91.39
67430;BME280;54298;52.076;5.264;2023-05-08T04:29:19;101991.0;;;11.83;91.47
67430;BME280;54298;52.076;5.264;2023-05-08T04:30:57;101991.0;;;11.72;91.8
67430;BME280;54298;52.076;5.264;2023-05-08T04:32:34;101991.0;;;11.59;92.42
67430;BME280;54298;52.076;5.264;2023-05-08T04:34:11;101991.0;;;11.68;92.47
67430;BME280;54298;52.076;5.264;2023-05-08T04:37:26;101994.0;;;11.7;92.26
67430;BME280;54298;52.076;5.264;2023-05-08T04:39:03;101991.0;;;11.68;92.53
67430;BME280;54298;52.076;5.264;2023-05-08T04:40:39;101995.0;;;11.7;92.7
67430;BME280;54298;52.076;5.264;2023-05-08T04:43:52;101996.0;;;11.74;92.14
67430;BME280;54298;52.076;5.264;2023-05-08T04:45:28;102003.0;;;11.66;92.53
67430;BME280;54298;52.076;5.264;2023-05-08T04:47:04;102003.0;;;11.65;92.5
67430;BME280;54298;52.076;5.264;2023-05-08T04:48:40;102002.0;;;11.57;93.19
67430;BME280;54298;52.076;5.264;2023-05-08T04:51:53;102009.0;;;11.57;93.66
67430;BME280;54298;52.076;5.264;2023-05-08T04:53:29;102011.0;;;11.66;93.55
67430;BME280;54298;52.076;5.264;2023-05-08T04:55:07;102011.0;;;11.59;93.7
67430;BME280;54298;52.076;5.264;2023-05-08T04:58:20;102010.0;;;11.55;94.13
67430;BME280;54298;52.076;5.264;2023-05-08T04:59:56;102014.0;;;11.61;94.38
67430;BME280;54298;52.076;5.264;2023-05-08T05:01:32;102021.0;;;11.69;94.58
67430;BME280;54298;52.076;5.264;2023-05-08T05:04:45;102023.0;;;11.8;94.57
67430;BME280;54298;52.076;5.264;2023-05-08T05:06:21;102022.0;;;11.8;95.25
67430;BME280;54298;52.076;5.264;2023-05-08T05:07:57;102028.0;;;11.97;95.24
67430;BME280;54298;52.076;5.264;2023-05-08T05:11:09;102030.0;;;12.1;95.5
67430;BME280;54298;52.076;5.264;2023-05-08T05:12:45;102030.0;;;12.11;95.59
67430;BME280;54298;52.076;5.264;2023-05-08T05:14:21;102028.0;;;12.27;95.65
67430;BME280;54298;52.076;5.264;2023-05-08T05:15:58;102030.0;;;12.37;95.1
67430;BME280;54298;52.076;5.264;2023-05-08T05:19:10;102027.0;;;12.47;95.56
67430;BME280;54298;52.076;5.264;2023-05-08T05:20:46;102027.0;;;12.54;95.62
67430;BME280;54298;52.076;5.264;2023-05-08T05:22:22;102031.0;;;12.52;95.85
67430;BME280;54298;52.076;5.264;2023-05-08T05:25:34;102030.0;;;12.64;96.05
67430;BME280;54298;52.076;5.264;2023-05-08T05:27:10;102032.0;;;12.71;95.79
67430;BME280;54298;52.076;5.264;2023-05-08T05:28:47;102032.0;;;12.85;95.82
67430;BME280;54298;52.076;5.264;2023-05-08T05:32:00;102036.0;;;12.92;95.75
67430;BME280;54298;52.076;5.264;2023-05-08T05:33:36;102035.0;;;13.14;95.32
67430;BME280;54298;52.076;5.264;2023-05-08T05:35:12;102038.0;;;13.19;94.82
67430;BME280;54298;52.076;5.264;2023-05-08T05:36:50;102041.0;;;13.32;94.42
67430;BME280;54298;52.076;5.264;2023-05-08T05:40:04;102041.0;;;13.35;94.62
67430;BME280;54298;52.076;5.264;2023-05-08T05:41:40;102046.0;;;13.35;94.92
67430;BME280;54298;52.076;5.264;2023-05-08T05:43:15;102045.0;;;13.5;94.71
67430;BME280;54298;52.076;5.264;2023-05-08T05:46:27;102049.0;;;13.66;94.12
67430;BME280;54298;52.076;5.264;2023-05-08T05:48:04;102050.0;;;13.68;94.35
67430;BME280;54298;52.076;5.264;2023-05-08T05:49:39;102053.0;;;13.74;94.39
67430;BME280;54298;52.076;5.264;2023-05-08T05:52:52;102048.0;;;13.87;94.19
67430;BME280;54298;52.076;5.264;2023-05-08T05:54:28;102055.0;;;13.93;93.63
67430;BME280;54298;52.076;5.264;2023-05-08T05:56:05;102050.0;;;14.04;93.27
67430;BME280;54298;52.076;5.264;2023-05-08T05:57:41;102050.0;;;14.06;92.89
67430;BME280;54298;52.076;5.264;2023-05-08T06:00:54;102049.0;;;14.07;93.0
67430;BME280;54298;52.076;5.264;2023-05-08T06:02:30;102050.0;;;14.04;93.41
67430;BME280;54298;52.076;5.264;2023-05-08T06:04:06;102051.0;;;14.05;93.8
67430;BME280;54298;52.076;5.264;2023-05-08T06:07:18;102051.0;;;14.2;93.27
67430;BME280;54298;52.076;5.264;2023-05-08T06:08:54;102056.0;;;14.29;93.12
67430;BME280;54298;52.076;5.264;2023-05-08T06:10:30;102055.0;;;14.34;93.12
67430;BME280;54298;52.076;5.264;2023-05-08T06:13:43;102057.0;;;14.38;93.08
67430;BME280;54298;52.076;5.264;2023-05-08T06:15:20;102060.0;;;14.43;92.65
67430;BME280;54298;52.076;5.264;2023-05-08T06:16:56;102059.0;;;14.48;92.54
67430;BME280;54298;52.076;5.264;2023-05-08T06:20:10;102060.0;;;14.54;92.79
67430;BME280;54298;52.076;5.264;2023-05-08T06:21:45;102065.0;;;14.69;92.53
67430;BME280;54298;52.076;5.264;2023-05-08T06:23:21;102060.0;;;14.68;92.74
67430;BME280;54298;52.076;5.264;2023-05-08T06:24:58;102061.0;;;14.76;92.31
67430;BME280;54298;52.076;5.264;2023-05-08T06:28:10;102062.0;;;14.79;92.3
67430;BME280;54298;52.076;5.264;2023-05-08T06:29:46;102065.0;;;14.86;91.79
67430;BME280;54298;52.076;5.264;2023-05-08T06:31:22;102061.0;;;14.93;91.75
67430;BME280;54298;52.076;5.264;2023-05-08T06:34:34;102065.0;;;15.05;91.5
67430;BME280;54298;52.076;5.264;2023-05-08T06:36:11;102065.0;;;15.13;91.66
67430;BME280;54298;52.076;5.264;2023-05-08T06:37:48;102064.0;;;15.11;91.63
67430;BME280;54298;52.076;5.264;2023-05-08T06:41:00;102066.0;;;15.21;91.79
67430;BME280;54298;52.076;5.264;2023-05-08T06:42:36;102065.0;;;15.31;91.99
67430;BME280;54298;52.076;5.264;2023-05-08T06:44:12;102062.0;;;15.29;91.76
67430;BME280;54298;52.076;5.264;2023-05-08T06:45:48;102062.0;;;15.37;92.41
67430;BME280;54298;52.076;5.264;2023-05-08T06:49:01;102062.0;;;15.51;92.32
67430;BME280;54298;52.076;5.264;2023-05-08T06:50:37;102065.0;;;15.57;92.08
67430;BME280;54298;52.076;5.264;2023-05-08T06:52:14;102069.0;;;15.63;92.23
67430;BME280;54298;52.076;5.264;2023-05-08T06:55:26;102066.0;;;15.76;92.0
67430;BME280;54298;52.076;5.264;2023-05-08T06:57:02;102067.0;;;15.87;91.4
67430;BME280;54298;52.076;5.264;2023-05-08T06:58:38;102068.0;;;15.89;91.69
67430;BME280;54298;52.076;5.264;2023-05-08T07:01:51;102068.0;;;15.98;91.87
67430;BME280;54298;52.076;5.264;2023-05-08T07:03:27;102067.0;;;15.98;90.7
67430;BME280;54298;52.076;5.264;2023-05-08T07:05:04;102066.0;;;16.02;89.78
67430;BME280;54298;52.076;5.264;2023-05-08T07:08:16;102068.0;;;16.0;89.96
67430;BME280;54298;52.076;5.264;2023-05-08T07:09:53;102068.0;;;16.02;89.59
67430;BME280;54298;52.076;5.264;2023-05-08T07:11:29;102070.0;;;15.96;89.65
67430;BME280;54298;52.076;5.264;2023-05-08T07:13:05;102068.0;;;16.02;89.21
67430;BME280;54298;52.076;5.264;2023-05-08T07:16:17;102059.0;;;16.05;89.03
67430;BME280;54298;52.076;5.264;2023-05-08T07:17:53;102063.0;;;16.07;88.77
67430;BME280;54298;52.076;5.264;2023-05-08T07:19:29;102063.0;;;16.04;89.18
67430;BME280;54298;52.076;5.264;2023-05-08T07:22:42;102062.0;;;15.99;89.37
67430;BME280;54298;52.076;5.264;2023-05-08T07:24:18;102063.0;;;16.18;89.13
67430;BME280;54298;52.076;5.264;2023-05-08T07:25:54;102060.0;;;16.21;88.89
67430;BME280;54298;52.076;5.264;2023-05-08T07:29:07;102058.0;;;16.2;89.23
67430;BME280;54298;52.076;5.264;2023-05-08T07:30:43;102059.0;;;16.34;89.1
67430;BME280;54298;52.076;5.264;2023-05-08T07:32:19;102061.0;;;16.34;89.1
67430;BME280;54298;52.076;5.264;2023-05-08T07:33:55;102061.0;;;16.41;89.19
67430;BME280;54298;52.076;5.264;2023-05-08T07:37:08;102060.0;;;16.39;89.0
67430;BME280;54298;52.076;5.264;2023-05-08T07:38:44;102062.0;;;16.47;88.64
67430;BME280;54298;52.076;5.264;2023-05-08T07:40:20;102064.0;;;16.52;88.23
67430;BME280;54298;52.076;5.264;2023-05-08T07:43:32;102061.0;;;16.59;88.1
67430;BME280;54298;52.076;5.264;2023-05-08T07:45:10;102057.0;;;16.57;88.02
67430;BME280;54298;52.076;5.264;2023-05-08T07:46:48;102058.0;;;16.7;87.82
67430;BME280;54298;52.076;5.264;2023-05-08T07:50:00;102057.0;;;16.7;87.25
67430;BME280;54298;52.076;5.264;2023-05-08T07:51:36;102060.0;;;16.68;87.6
67430;BME280;54298;52.076;5.264;2023-05-08T07:53:12;102055.0;;;16.79;87.69
67430;BME280;54298;52.076;5.264;2023-05-08T07:56:25;102061.0;;;16.93;87.52
67430;BME280;54298;52.076;5.264;2023-05-08T07:58:01;102064.0;;;16.93;87.52
67430;BME280;54298;52.076;5.264;2023-05-08T07:59:37;102060.0;;;16.98;87.95
67430;BME280;54298;52.076;5.264;2023-05-08T08:01:13;102062.0;;;17.04;86.96
67430;BME280;54298;52.076;5.264;2023-05-08T08:04:25;102058.0;;;17.07;86.88
67430;BME280;54298;52.076;5.264;2023-05-08T08:06:01;102061.0;;;16.9;87.48
67430;BME280;54298;52.076;5.264;2023-05-08T08:07:37;102062.0;;;17.18;86.54
67430;BME280;54298;52.076;5.264;2023-05-08T08:10:50;102063.0;;;17.22;85.93
67430;BME280;54298;52.076;5.264;2023-05-08T08:12:26;102063.0;;;17.31;85.67
67430;BME280;54298;52.076;5.264;2023-05-08T08:14:03;102059.0;;;17.27;86.07
67430;BME280;54298;52.076;5.264;2023-05-08T08:17:16;102057.0;;;17.36;85.57
67430;BME280;54298;52.076;5.264;2023-05-08T08:18:52;102058.0;;;17.38;85.51
67430;BME280;54298;52.076;5.264;2023-05-08T08:20:29;102062.0;;;17.5;84.12
67430;BME280;54298;52.076;5.264;2023-05-08T08:22:05;102057.0;;;17.5;83.52
67430;BME280;54298;52.076;5.264;2023-05-08T08:25:17;102057.0;;;17.52;83.23
67430;BME280;54298;52.076;5.264;2023-05-08T08:26:53;102056.0;;;17.52;83.06
67430;BME280;54298;52.076;5.264;2023-05-08T08:28:29;102055.0;;;17.61;82.02
67430;BME280;54298;52.076;5.264;2023-05-08T08:31:43;102053.0;;;17.68;81.78
67430;BME280;54298;52.076;5.264;2023-05-08T08:33:19;102052.0;;;17.75;81.95
67430;BME280;54298;52.076;5.264;2023-05-08T08:34:55;102050.0;;;17.79;81.88
67430;BME280;54298;52.076;5.264;2023-05-08T08:38:07;102049.0;;;17.82;81.39
67430;BME280;54298;52.076;5.264;2023-05-08T08:39:43;102050.0;;;17.89;81.66
67430;BME280;54298;52.076;5.264;2023-05-08T08:41:19;102053.0;;;17.91;81.3
67430;BME280;54298;52.076;5.264;2023-05-08T08:44:32;102053.0;;;17.97;81.41
67430;BME280;54298;52.076;5.264;2023-05-08T08:46:10;102052.0;;;18.09;80.52
67430;BME280;54298;52.076;5.264;2023-05-08T08:47:47;102059.0;;;18.06;80.19
67430;BME280;54298;52.076;5.264;2023-05-08T08:49:29;102053.0;;;18.18;79.3
67430;BME280;54298;52.076;5.264;2023-05-08T08:52:55;102058.0;;;18.2;79.19
67430;BME280;54298;52.076;5.264;2023-05-08T08:54:35;102060.0;;;18.2;79.56
67430;BME280;54298;52.076;5.264;2023-05-08T08:56:14;102058.0;;;18.25;80.37
67430;BME280;54298;52.076;5.264;2023-05-08T08:57:56;102062.0;;;18.23;80.22
67430;BME280;54298;52.076;5.264;2023-05-08T09:01:17;102059.0;;;18.27;79.49
67430;BME280;54298;52.076;5.264;2023-05-08T09:02:55;102056.0;;;18.36;79.34
67430;BME280;54298;52.076;5.264;2023-05-08T09:04:31;102057.0;;;18.43;79.83
67430;BME280;54298;52.076;5.264;2023-05-08T09:06:07;102058.0;;;18.43;79.24
67430;BME280;54298;52.076;5.264;2023-05-08T09:09:19;102057.0;;;18.41;78.42
67430;BME280;54298;52.076;5.264;2023-05-08T09:10:55;102061.0;;;18.45;79.16
67430;BME280;54298;52.076;5.264;2023-05-08T09:12:32;102056.0;;;18.5;78.05
67430;BME280;54298;52.076;5.264;2023-05-08T09:15:44;102057.0;;;18.57;78.08
67430;BME280;54298;52.076;5.264;2023-05-08T09:17:20;102055.0;;;18.52;77.84
67430;BME280;54298;52.076;5.264;2023-05-08T09:18:56;102053.0;;;18.46;78.16
67430;BME280;54298;52.076;5.264;2023-05-08T09:22:10;102055.0;;;18.53;78.22
67430;BME280;54298;52.076;5.264;2023-05-08T09:23:54;102057.0;;;18.54;78.09
67430;BME280;54298;52.076;5.264;2023-05-08T09:25:48;102058.0;;;18.64;78.16
67430;BME280;54298;52.076;5.264;2023-05-08T09:27:26;102057.0;;;18.66;78.17
67430;BME280;54298;52.076;5.264;2023-05-08T09:29:09;102053.0;;;18.7;77.73
67430;BME280;54298;52.076;5.264;2023-05-08T09:32:26;102053.0;;;18.75;78.16
67430;BME280;54298;52.076;5.264;2023-05-08T09:34:02;102055.0;;;18.78;77.69
67430;BME280;54298;52.076;5.264;2023-05-08T09:35:39;102060.0;;;18.86;77.58
67430;BME280;54298;52.076;5.264;2023-05-08T09:38:52;102056.0;;;18.91;76.77
67430;BME280;54298;52.076;5.264;2023-05-08T09:40:28;102059.0;;;18.82;76.92
67430;BME280;54298;52.076;5.264;2023-05-08T09:42:04;102057.0;;;18.96;76.5
67430;BME280;54298;52.076;5.264;2023-05-08T09:43:41;102053.0;;;19.03;75.37
67430;BME280;54298;52.076;5.264;2023-05-08T09:47:10;102056.0;;;19.11;74.91
67430;BME280;54298;52.076;5.264;2023-05-08T09:48:49;102061.0;;;19.2;74.88
67430;BME280;54298;52.076;5.264;2023-05-08T09:50:27;102058.0;;;19.16;74.64
67430;BME280;54298;52.076;5.264;2023-05-08T09:52:03;102055.0;;;19.23;74.09
67430;BME280;54298;52.076;5.264;2023-05-08T09:55:16;102060.0;;;19.27;74.39
67430;BME280;54298;52.076;5.264;2023-05-08T09:56:53;102058.0;;;19.11;74.27
67430;BME280;54298;52.076;5.264;2023-05-08T09:58:37;102057.0;;;19.09;74.83
67430;BME280;54298;52.076;5.264;2023-05-08T10:01:50;102058.0;;;19.23;74.09
67430;BME280;54298;52.076;5.264;2023-05-08T10:03:44;102056.0;;;19.47;73.7
67430;BME280;54298;52.076;5.264;2023-05-08T10:05:23;102059.0;;;19.5;72.89
67430;BME280;54298;52.076;5.264;2023-05-08T10:07:00;102061.0;;;19.64;72.19
67430;BME280;54298;52.076;5.264;2023-05-08T10:10:14;102063.0;;;19.64;72.02
67430;BME280;54298;52.076;5.264;2023-05-08T10:11:56;102065.0;;;19.7;71.61
67430;BME280;54298;52.076;5.264;2023-05-08T10:13:33;102065.0;;;19.72;71.5
67430;BME280;54298;52.076;5.264;2023-05-08T10:15:09;102065.0;;;19.56;71.98
67430;BME280;54298;52.076;5.264;2023-05-08T10:18:28;102060.0;;;19.48;73.33
67430;BME280;54298;52.076;5.264;2023-05-08T10:20:06;102061.0;;;19.55;73.05
67430;BME280;54298;52.076;5.264;2023-05-08T10:21:46;102060.0;;;19.41;74.8
67430;BME280;54298;52.076;5.264;2023-05-08T10:23:22;102060.0;;;19.39;75.12
67430;BME280;54298;52.076;5.264;2023-05-08T10:28:23;102067.0;;;19.28;73.8
67430;BME280;54298;52.076;5.264;2023-05-08T10:30:04;102063.0;;;19.2;73.97
67430;BME280;54298;52.076;5.264;2023-05-08T10:31:45;102061.0;;;19.16;74.33
67430;BME280;54298;52.076;5.264;2023-05-08T10:35:09;102061.0;;;19.28;74.84
67430;BME280;54298;52.076;5.264;2023-05-08T10:36:45;102057.0;;;19.34;75.62
67430;BME280;54298;52.076;5.264;2023-05-08T10:38:23;102058.0;;;19.31;75.77
67430;BME280;54298;52.076;5.264;2023-05-08T10:41:40;102062.0;;;19.47;75.3
67430;BME280;54298;52.076;5.264;2023-05-08T10:43:16;102060.0;;;19.41;74.72
67430;BME280;54298;52.076;5.264;2023-05-08T10:44:53;102066.0;;;19.31;73.03
67430;BME280;54298;52.076;5.264;2023-05-08T10:46:36;102058.0;;;19.27;72.98
67430;BME280;54298;52.076;5.264;2023-05-08T10:50:13;102058.0;;;19.29;73.39
67430;BME280;54298;52.076;5.264;2023-05-08T10:52:00;102056.0;;;19.41;74.11
67430;BME280;54298;52.076;5.264;2023-05-08T10:53:45;102058.0;;;19.47;73.48
67430;BME280;54298;52.076;5.264;2023-05-08T10:55:28;102056.0;;;19.5;73.23
67430;BME280;54298;52.076;5.264;2023-05-08T10:57:08;102052.0;;;19.55;72.94
67430;BME280;54298;52.076;5.264;2023-05-08T11:00:32;102052.0;;;19.59;73.16
67430;BME280;54298;52.076;5.264;2023-05-08T11:02:47;102049.0;;;19.66;72.86
67430;BME280;54298;52.076;5.264;2023-05-08T11:04:23;102047.0;;;19.64;72.59
67430;BME280;54298;52.076;5.264;2023-05-08T11:06:00;102046.0;;;19.7;72.91
67430;BME280;54298;52.076;5.264;2023-05-08T11:07:52;102043.0;;;19.68;72.97
67430;BME280;54298;52.076;5.264;2023-05-08T11:09:30;102045.0;;;19.66;73.24